createdAt,value
2023-04-16T00:00:07.156Z,6.13
2023-04-16T00:02:38.269Z,4.60
2023-04-16T00:05:05.374Z,7.65
2023-04-16T00:07:35.970Z,4.63
2023-04-16T00:10:09.822Z,7.50
2023-04-16T00:12:36.186Z,3.10
2023-04-16T00:15:02.595Z,5.25
2023-04-16T00:17:35.971Z,5.93
2023-04-16T00:20:02.413Z,9.85
2023-04-16T00:22:28.794Z,5.00
2023-04-16T00:24:56.325Z,6.45
2023-04-16T00:27:22.881Z,5.53
2023-04-16T00:29:56.559Z,5.18
2023-04-16T00:32:26.767Z,4.45
2023-04-16T00:34:53.092Z,5.63
2023-04-16T00:37:19.650Z,6.75
2023-04-16T00:39:46.265Z,6.70
2023-04-16T00:42:12.994Z,5.82
2023-04-16T00:44:39.361Z,6.15
2023-04-16T00:47:06.342Z,6.10
2023-04-16T00:49:32.701Z,5.40
2023-04-16T00:52:04.157Z,6.50
2023-04-16T00:54:34.693Z,7.47
2023-04-16T00:57:01.069Z,4.80
2023-04-16T00:59:27.701Z,6.28
2023-04-16T01:01:54.338Z,6.28
2023-04-16T01:04:21.253Z,8.38
2023-04-16T01:06:47.690Z,6.63
2023-04-16T01:09:18.184Z,8.25
2023-04-16T01:11:44.533Z,7.93
2023-04-16T01:14:10.824Z,7.35
2023-04-16T01:16:44.720Z,5.18
2023-04-16T01:19:12.727Z,8.50
2023-04-16T01:21:39.268Z,7.00
2023-04-16T01:24:10.520Z,9.13
2023-04-16T01:26:36.876Z,5.88
2023-04-16T01:29:03.473Z,7.85
2023-04-16T01:31:32.426Z,6.18
2023-04-16T01:33:58.826Z,10.30
2023-04-16T01:36:37.407Z,10.55
2023-04-16T01:39:03.925Z,8.68
2023-04-16T01:41:32.935Z,6.88
2023-04-16T01:43:59.400Z,7.47
2023-04-16T01:46:33.334Z,11.13
2023-04-16T01:48:59.988Z,9.48
2023-04-16T01:51:26.351Z,9.02
2023-04-16T01:53:52.831Z,9.88
2023-04-16T01:56:19.193Z,8.73
2023-04-16T01:58:47.115Z,10.13
2023-04-16T02:01:18.805Z,6.88
2023-04-16T02:03:55.723Z,10.73
2023-04-16T02:06:24.284Z,13.50
2023-04-16T02:08:50.853Z,10.25
2023-04-16T02:11:18.646Z,11.48
2023-04-16T02:13:44.985Z,11.80
2023-04-16T02:16:11.370Z,11.98
2023-04-16T02:18:37.673Z,11.88
2023-04-16T02:21:07.008Z,12.95
2023-04-16T02:23:37.646Z,10.75
2023-04-16T02:28:30.214Z,13.57
2023-04-16T02:31:00.405Z,12.60
2023-04-16T02:33:26.961Z,12.43
2023-04-16T02:35:53.613Z,16.05
2023-04-16T02:38:22.465Z,14.32
2023-04-16T02:40:48.833Z,12.60
2023-04-16T02:43:19.806Z,15.38
2023-04-16T02:45:49.336Z,12.68
2023-04-16T02:48:15.783Z,12.38
2023-04-16T02:50:42.141Z,13.05
2023-04-16T02:53:08.465Z,12.88
2023-04-16T02:55:34.829Z,17.92
2023-04-16T02:58:07.872Z,14.63
2023-04-16T03:00:34.177Z,21.27
2023-04-16T03:03:02.738Z,16.38
2023-04-16T03:05:40.285Z,12.05
2023-04-16T03:08:07.464Z,19.45
2023-04-16T03:10:33.897Z,15.57
2023-04-16T03:13:00.298Z,13.02
2023-04-16T03:15:31.682Z,17.25
2023-04-16T03:17:58.061Z,15.95
2023-04-16T03:20:27.000Z,18.80
2023-04-16T03:22:56.255Z,20.02
2023-04-16T03:25:22.667Z,12.38
2023-04-16T03:27:49.068Z,16.20
2023-04-16T03:30:20.854Z,23.75
2023-04-16T03:32:47.282Z,19.55
2023-04-16T03:35:13.695Z,16.83
2023-04-16T03:37:40.045Z,14.30
2023-04-16T03:40:07.123Z,15.05
2023-04-16T03:42:41.811Z,18.13
2023-04-16T03:45:08.632Z,11.68
2023-04-16T03:47:35.092Z,17.15
2023-04-16T03:50:04.931Z,15.88
2023-04-16T03:52:31.309Z,16.60
2023-04-16T03:54:57.662Z,13.18
2023-04-16T03:57:26.405Z,14.40
2023-04-16T03:59:58.164Z,14.77
2023-04-16T04:02:24.718Z,15.63
2023-04-16T04:04:51.337Z,17.38
2023-04-16T04:07:18.949Z,18.98
2023-04-16T04:09:48.765Z,17.20
2023-04-16T04:12:15.137Z,15.75
2023-04-16T04:14:41.680Z,20.23
2023-04-16T04:17:11.250Z,15.48
2023-04-16T04:19:40.268Z,14.65
2023-04-16T04:22:14.528Z,18.75
2023-04-16T04:24:41.009Z,14.77
2023-04-16T04:27:08.748Z,18.10
2023-04-16T04:29:35.091Z,21.85
2023-04-16T04:32:09.858Z,22.42
2023-04-16T04:34:36.161Z,17.98
2023-04-16T04:37:03.789Z,17.95
2023-04-16T04:39:38.725Z,15.88
2023-04-16T04:42:07.952Z,16.90
2023-04-16T04:44:37.343Z,17.75
2023-04-16T04:47:03.789Z,22.13
2023-04-16T04:49:30.259Z,20.13
2023-04-16T04:51:57.787Z,17.20
2023-04-16T04:54:32.086Z,23.15
2023-04-16T04:57:00.266Z,14.30
2023-04-16T04:59:28.115Z,17.40
2023-04-16T05:01:54.507Z,13.35
2023-04-16T05:04:20.945Z,16.88
2023-04-16T05:06:47.249Z,16.77
2023-04-16T05:09:16.044Z,15.30
2023-04-16T05:11:42.341Z,15.77
2023-04-16T05:14:11.217Z,20.13
2023-04-16T05:16:40.953Z,15.60
2023-04-16T05:19:07.409Z,17.30
2023-04-16T05:21:34.116Z,19.45
2023-04-16T05:24:00.627Z,18.77
2023-04-16T05:26:27.005Z,17.63
2023-04-16T05:28:54.768Z,22.85
2023-04-16T05:31:21.181Z,19.15
2023-04-16T05:33:51.808Z,19.65
2023-04-16T05:36:18.108Z,20.30
2023-04-16T05:38:45.536Z,21.35
2023-04-16T05:41:13.142Z,22.65
2023-04-16T05:43:39.441Z,16.05
2023-04-16T05:46:13.321Z,20.65
2023-04-16T05:48:39.700Z,22.27
2023-04-16T05:51:07.104Z,19.65
2023-04-16T05:53:33.429Z,20.85
2023-04-16T05:55:59.763Z,16.45
2023-04-16T05:58:27.302Z,22.75
2023-04-16T06:00:56.758Z,20.48
2023-04-16T06:03:24.646Z,17.15
2023-04-16T06:05:51.130Z,18.58
2023-04-16T06:08:17.466Z,22.40
2023-04-16T06:10:47.205Z,24.58
2023-04-16T06:13:13.668Z,18.05
2023-04-16T06:15:40.015Z,16.77
2023-04-16T06:18:06.396Z,19.67
2023-04-16T06:20:32.792Z,17.02
2023-04-16T06:22:59.137Z,23.05
2023-04-16T06:25:25.544Z,24.42
2023-04-16T06:27:51.894Z,21.17
2023-04-16T06:30:19.339Z,20.10
2023-04-16T06:32:45.932Z,16.60
2023-04-16T06:35:13.504Z,15.70
2023-04-16T06:37:39.838Z,20.92
2023-04-16T06:40:06.708Z,20.20
2023-04-16T06:42:38.366Z,22.38
2023-04-16T06:45:07.810Z,23.52
2023-04-16T06:47:34.140Z,21.75
2023-04-16T06:50:00.631Z,20.33
2023-04-16T06:52:29.317Z,22.83
2023-04-16T06:54:59.033Z,21.33
2023-04-16T06:57:25.606Z,19.95
2023-04-16T06:59:52.007Z,23.70
2023-04-16T07:02:18.528Z,23.08
2023-04-16T07:04:46.027Z,16.13
2023-04-16T07:07:12.409Z,18.58
2023-04-16T07:09:38.699Z,23.90
2023-04-16T07:12:08.125Z,21.40
2023-04-16T07:14:34.477Z,20.92
2023-04-16T07:17:00.800Z,21.05
2023-04-16T07:19:27.142Z,21.02
2023-04-16T07:21:53.504Z,24.75
2023-04-16T07:24:19.900Z,21.52
2023-04-16T07:26:46.282Z,22.38
2023-04-16T07:29:14.985Z,24.67
2023-04-16T07:31:48.862Z,21.67
2023-04-16T07:34:15.217Z,23.48
2023-04-16T07:36:41.586Z,21.58
2023-04-16T07:39:08.489Z,20.48
2023-04-16T07:41:35.169Z,22.42
2023-04-16T07:44:01.515Z,20.42
2023-04-16T07:46:36.088Z,17.08
2023-04-16T07:49:12.163Z,17.58
2023-04-16T07:51:43.594Z,18.00
2023-04-16T07:54:12.822Z,23.52
2023-04-16T07:56:39.172Z,16.33
2023-04-16T07:59:19.200Z,15.93
2023-04-16T08:01:51.987Z,20.30
2023-04-16T08:04:26.449Z,16.98
2023-04-16T08:06:56.397Z,16.15
2023-04-16T08:09:30.403Z,13.80
2023-04-16T08:11:56.900Z,13.15
2023-04-16T08:14:23.300Z,16.73
2023-04-16T08:16:49.683Z,13.07
2023-04-16T08:19:19.178Z,10.65
2023-04-16T08:21:45.775Z,12.68
2023-04-16T08:24:13.307Z,13.18
2023-04-16T08:26:39.705Z,14.02
2023-04-16T08:29:06.188Z,11.00
2023-04-16T08:31:37.888Z,13.00
2023-04-16T08:34:06.988Z,12.73
2023-04-16T08:36:33.521Z,12.55
2023-04-16T08:39:02.139Z,11.90
2023-04-16T08:41:34.983Z,10.55
2023-04-16T08:44:07.583Z,12.07
2023-04-16T08:46:42.641Z,10.25
2023-04-16T08:49:15.719Z,10.63
2023-04-16T08:51:45.405Z,9.05
2023-04-16T08:54:22.130Z,11.07
2023-04-16T08:56:51.319Z,8.35
2023-04-16T08:59:26.436Z,11.15
2023-04-16T09:01:57.756Z,8.40
2023-04-16T09:04:28.823Z,8.05
2023-04-16T09:06:56.210Z,9.88
2023-04-16T09:09:22.935Z,9.18
2023-04-16T09:11:53.425Z,9.85
2023-04-16T09:16:46.863Z,10.50
2023-04-16T09:19:14.642Z,8.85
2023-04-16T09:21:48.867Z,8.25
2023-04-16T09:24:16.713Z,7.28
2023-04-16T09:26:43.258Z,7.68
2023-04-16T09:29:10.194Z,7.15
2023-04-16T09:31:36.711Z,7.60
2023-04-16T09:34:12.065Z,9.63
2023-04-16T09:36:38.378Z,8.80
2023-04-16T09:39:07.062Z,10.10
2023-04-16T09:41:33.859Z,7.60
2023-04-16T09:44:02.537Z,9.07
2023-04-16T09:46:35.967Z,7.93
2023-04-16T09:49:32.512Z,9.27
2023-04-16T09:51:58.868Z,7.47
2023-04-16T09:54:26.167Z,8.10
2023-04-16T09:56:57.025Z,6.95
2023-04-16T09:59:24.218Z,7.45
2023-04-16T10:01:51.399Z,10.80
2023-04-16T10:04:17.865Z,11.48
2023-04-16T10:07:02.007Z,10.48
2023-04-16T10:09:32.036Z,8.60
2023-04-16T10:12:00.768Z,7.45
2023-04-16T10:14:27.045Z,8.75
2023-04-16T10:16:53.702Z,8.90
2023-04-16T10:19:20.879Z,9.75
2023-04-16T10:21:48.125Z,10.57
2023-04-16T10:24:14.647Z,10.35
2023-04-16T10:26:43.648Z,9.90
2023-04-16T10:29:14.589Z,9.75
2023-04-16T10:31:41.825Z,13.70
2023-04-16T10:34:09.150Z,14.05
2023-04-16T10:36:39.317Z,11.55
2023-04-16T10:39:10.704Z,14.45
2023-04-16T10:41:41.182Z,12.35
2023-04-16T10:44:09.034Z,8.52
2023-04-16T10:46:40.421Z,10.15
2023-04-16T10:49:24.502Z,13.75
2023-04-16T10:51:54.867Z,11.55
2023-04-16T10:54:27.156Z,12.00
2023-04-16T10:56:56.612Z,14.63
2023-04-16T10:59:24.301Z,13.00
2023-04-16T11:01:59.300Z,15.32
2023-04-16T11:04:25.782Z,12.98
2023-04-16T11:07:09.218Z,18.38
2023-04-16T11:09:52.259Z,12.68
2023-04-16T11:12:42.018Z,19.48
2023-04-16T11:15:09.714Z,18.30
2023-04-16T11:17:41.255Z,16.20
2023-04-16T11:20:21.163Z,20.38
2023-04-16T11:22:49.127Z,17.40
2023-04-16T11:25:26.497Z,16.90
2023-04-16T11:27:53.525Z,16.58
2023-04-16T11:30:32.328Z,14.00
2023-04-16T11:33:01.787Z,12.40
2023-04-16T11:35:28.432Z,14.98
2023-04-16T11:38:02.615Z,14.93
2023-04-16T11:40:33.407Z,14.18
2023-04-16T11:43:13.777Z,16.95
2023-04-16T11:45:55.624Z,15.85
2023-04-16T11:48:22.075Z,13.20
2023-04-16T11:50:56.846Z,14.27
2023-04-16T11:53:23.411Z,11.40
2023-04-16T11:55:49.815Z,19.25
2023-04-16T11:58:18.028Z,17.00
2023-04-16T12:00:44.882Z,15.93
2023-04-16T12:03:14.780Z,16.00
2023-04-16T12:05:43.013Z,18.45
2023-04-16T12:08:11.667Z,18.98
2023-04-16T12:10:55.420Z,14.90
2023-04-16T12:13:25.257Z,14.63
2023-04-16T12:15:58.104Z,13.93
2023-04-16T12:18:28.102Z,13.20
2023-04-16T12:20:57.276Z,11.30
2023-04-16T12:23:23.646Z,15.43
2023-04-16T12:25:50.114Z,12.63
2023-04-16T12:28:36.131Z,11.60
2023-04-16T12:31:03.180Z,11.93
2023-04-16T12:33:29.834Z,15.73
2023-04-16T12:35:56.662Z,11.43
2023-04-16T12:38:24.636Z,10.15
2023-04-16T12:41:00.513Z,14.50
2023-04-16T12:43:26.854Z,12.60
2023-04-16T12:45:55.494Z,9.40
2023-04-16T12:48:21.983Z,12.00
2023-04-16T12:50:49.891Z,10.05
2023-04-16T12:53:16.194Z,11.90
2023-04-16T12:55:42.489Z,13.60
2023-04-16T12:58:12.586Z,12.27
2023-04-16T13:00:39.739Z,14.43
2023-04-16T13:03:07.491Z,10.00
2023-04-16T13:05:36.183Z,11.50
2023-04-16T13:08:06.590Z,14.45
2023-04-16T13:10:33.041Z,11.95
2023-04-16T13:13:04.232Z,12.90
2023-04-16T13:15:33.390Z,17.15
2023-04-16T13:17:59.791Z,11.57
2023-04-16T13:20:26.129Z,15.93
2023-04-16T13:22:52.460Z,19.40
2023-04-16T13:25:18.764Z,13.07
2023-04-16T13:27:45.099Z,20.27
2023-04-16T13:30:11.760Z,15.68
2023-04-16T13:32:38.165Z,18.23
2023-04-16T13:35:04.809Z,21.35
2023-04-16T13:37:31.124Z,16.38
2023-04-16T13:39:57.526Z,18.98
2023-04-16T13:42:23.812Z,19.40
2023-04-16T13:44:50.107Z,20.27
2023-04-16T13:47:16.707Z,20.98
2023-04-16T13:49:44.294Z,21.08
2023-04-16T13:52:13.264Z,16.45
2023-04-16T13:54:39.611Z,17.42
2023-04-16T13:57:07.320Z,17.45
2023-04-16T13:59:33.721Z,18.23
2023-04-16T14:02:00.056Z,17.20
2023-04-16T14:04:26.471Z,15.70
2023-04-16T14:06:55.378Z,16.88
2023-04-16T14:09:21.667Z,16.05
2023-04-16T14:11:48.077Z,17.88
2023-04-16T14:14:14.486Z,13.02
2023-04-16T14:16:40.939Z,14.77
2023-04-16T14:19:07.404Z,13.88
2023-04-16T14:21:33.734Z,13.45
2023-04-16T14:24:03.297Z,14.15
2023-04-16T14:26:32.117Z,16.70
2023-04-16T14:28:58.438Z,14.57
2023-04-16T14:31:24.750Z,15.48
2023-04-16T14:33:51.100Z,12.13
2023-04-16T14:36:17.577Z,13.77
2023-04-16T14:38:43.960Z,15.35
2023-04-16T14:41:12.799Z,14.43
2023-04-16T14:43:40.434Z,10.68
2023-04-16T14:46:07.016Z,15.85
2023-04-16T14:48:34.433Z,12.43
2023-04-16T14:51:02.305Z,15.45
2023-04-16T14:53:28.686Z,16.40
2023-04-16T14:55:56.058Z,15.20
2023-04-16T14:58:22.420Z,13.13
2023-04-16T15:00:48.766Z,13.93
2023-04-16T15:03:15.409Z,14.60
2023-04-16T15:05:46.753Z,10.25
2023-04-16T15:08:13.134Z,13.93
2023-04-16T15:10:39.470Z,11.80
2023-04-16T15:13:07.006Z,15.90
2023-04-16T15:15:36.138Z,12.82
2023-04-16T15:18:08.433Z,10.90
2023-04-16T15:20:34.919Z,14.77
2023-04-16T15:23:01.470Z,10.23
2023-04-16T15:25:27.921Z,13.13
2023-04-16T15:27:56.250Z,14.35
2023-04-16T15:30:22.655Z,11.68
2023-04-16T15:32:48.992Z,11.27
2023-04-16T15:35:15.367Z,14.60
2023-04-16T15:37:44.026Z,11.85
2023-04-16T15:40:12.520Z,13.55
2023-04-16T15:42:38.858Z,13.15
2023-04-16T15:45:12.574Z,12.10
2023-04-16T15:47:41.528Z,12.95
2023-04-16T15:50:10.533Z,12.90
2023-04-16T15:52:36.942Z,14.27
2023-04-16T15:55:06.971Z,16.45
2023-04-16T15:57:33.262Z,13.10
2023-04-16T16:00:07.387Z,15.50
2023-04-16T16:02:35.409Z,16.10
2023-04-16T16:05:01.891Z,15.20
2023-04-16T16:07:28.257Z,17.88
2023-04-16T16:09:54.622Z,14.18
2023-04-16T16:12:20.907Z,19.38
2023-04-16T16:14:47.225Z,13.68
2023-04-16T16:17:19.142Z,13.77
2023-04-16T16:19:47.869Z,12.57
2023-04-16T16:22:16.552Z,15.00
2023-04-16T16:24:44.035Z,13.82
2023-04-16T16:27:13.211Z,12.40
2023-04-16T16:29:39.501Z,14.90
2023-04-16T16:32:07.371Z,16.33
2023-04-16T16:34:33.743Z,16.60
2023-04-16T16:37:00.187Z,18.52
2023-04-16T16:39:33.413Z,15.55
2023-04-16T16:42:00.038Z,17.77
2023-04-16T16:44:27.969Z,14.85
2023-04-16T16:46:54.335Z,19.05
2023-04-16T16:49:20.959Z,16.90
2023-04-16T16:51:48.188Z,15.65
2023-04-16T16:54:16.811Z,17.30
2023-04-16T16:56:43.190Z,14.27
2023-04-16T16:59:09.987Z,17.70
2023-04-16T17:01:36.795Z,17.08
2023-04-16T17:04:03.353Z,13.50
2023-04-16T17:06:33.370Z,16.67
2023-04-16T17:09:00.024Z,19.50
2023-04-16T17:11:26.550Z,16.33
2023-04-16T17:13:53.536Z,16.88
2023-04-16T17:16:21.193Z,18.85
2023-04-16T17:18:48.658Z,20.50
2023-04-16T17:21:18.610Z,19.17
2023-04-16T17:23:50.643Z,24.08
2023-04-16T17:26:21.251Z,24.42
2023-04-16T17:28:48.724Z,19.23
2023-04-16T17:31:15.209Z,19.98
2023-04-16T17:33:41.624Z,18.35
2023-04-16T17:36:10.282Z,20.27
2023-04-16T17:38:36.598Z,21.67
2023-04-16T17:41:02.980Z,15.50
2023-04-16T17:43:29.295Z,17.20
2023-04-16T17:45:55.847Z,18.45
2023-04-16T17:48:22.493Z,18.70
2023-04-16T17:50:49.186Z,22.08
2023-04-16T17:53:18.571Z,19.30
2023-04-16T17:55:56.552Z,19.45
2023-04-16T17:58:23.512Z,18.52
2023-04-16T18:00:52.883Z,15.75
2023-04-16T18:03:22.275Z,20.55
2023-04-16T18:05:48.858Z,17.83
2023-04-16T18:08:15.185Z,19.98
2023-04-16T18:10:41.493Z,18.50
2023-04-16T18:13:07.818Z,16.65
2023-04-16T18:15:39.677Z,17.35
2023-04-16T18:18:06.050Z,19.48
2023-04-16T18:20:34.876Z,20.58
2023-04-16T18:23:01.229Z,23.02
2023-04-16T18:25:34.395Z,17.58
2023-04-16T18:28:01.273Z,20.80
2023-04-16T18:30:28.222Z,18.60
2023-04-16T18:33:25.367Z,19.92
2023-04-16T18:35:41.418Z,24.35
2023-04-16T18:38:07.721Z,20.70
2023-04-16T18:40:37.554Z,24.98
2023-04-16T18:43:04.262Z,19.08
2023-04-16T18:45:34.131Z,20.40
2023-04-16T18:48:00.944Z,21.08
2023-04-16T18:50:27.289Z,23.67
2023-04-16T18:52:53.652Z,22.58
2023-04-16T18:55:19.989Z,25.60
2023-04-16T18:57:49.047Z,24.85
2023-04-16T19:00:15.589Z,20.75
2023-04-16T19:02:42.084Z,26.17
2023-04-16T19:05:09.106Z,19.60
2023-04-16T19:07:37.816Z,25.35
2023-04-16T19:10:12.129Z,23.40
2023-04-16T19:12:40.824Z,21.17
2023-04-16T19:15:09.166Z,25.00
2023-04-16T19:17:43.336Z,25.45
2023-04-16T19:20:12.459Z,25.20
2023-04-16T19:22:41.179Z,21.48
2023-04-16T19:25:07.966Z,20.92
2023-04-16T19:27:36.798Z,23.38
2023-04-16T19:30:03.712Z,21.80
2023-04-16T19:32:35.070Z,24.55
2023-04-16T19:35:01.562Z,28.17
2023-04-16T19:37:27.899Z,21.05
2023-04-16T19:39:54.287Z,21.92
2023-04-16T19:42:20.717Z,24.85
2023-04-16T19:44:47.035Z,22.90
2023-04-16T19:47:13.355Z,23.98
2023-04-16T19:49:39.666Z,22.85
2023-04-16T19:52:11.358Z,22.25
2023-04-16T19:54:37.702Z,22.35
2023-04-16T19:57:04.438Z,25.65
2023-04-16T19:59:31.922Z,21.98
2023-04-16T20:02:02.048Z,22.60
2023-04-16T20:04:28.634Z,25.60
2023-04-16T20:06:57.585Z,28.02
2023-04-16T20:09:23.938Z,28.75
2023-04-16T20:11:51.399Z,20.10
2023-04-16T20:14:17.717Z,26.13
2023-04-16T20:16:44.078Z,23.60
2023-04-16T20:19:10.743Z,26.02
2023-04-16T20:21:37.426Z,19.90
2023-04-16T20:24:07.449Z,28.20
2023-04-16T20:26:36.830Z,28.80
2023-04-16T20:29:03.136Z,29.00
2023-04-16T20:31:30.673Z,25.35
2023-04-16T20:33:57.021Z,30.75
2023-04-16T20:36:23.426Z,25.63
2023-04-16T20:38:50.714Z,28.83
2023-04-16T20:41:17.902Z,32.17
2023-04-16T20:43:44.184Z,28.90
2023-04-16T20:46:14.668Z,23.98
2023-04-16T20:48:40.978Z,26.33
2023-04-16T20:51:07.665Z,29.10
2023-04-16T20:53:34.013Z,28.50
2023-04-16T20:56:00.398Z,29.77
2023-04-16T20:58:29.313Z,30.85
2023-04-16T21:00:57.363Z,31.63
2023-04-16T21:03:25.352Z,28.80
2023-04-16T21:05:53.164Z,29.52
2023-04-16T21:08:24.627Z,27.13
2023-04-16T21:10:59.895Z,31.50
2023-04-16T21:13:26.250Z,29.17
2023-04-16T21:15:52.844Z,32.97
2023-04-16T21:18:21.971Z,27.35
2023-04-16T21:20:48.273Z,28.33
2023-04-16T21:23:17.003Z,33.78
2023-04-16T21:25:43.455Z,29.65
2023-04-16T21:28:09.814Z,36.65
2023-04-16T21:30:36.686Z,32.80
2023-04-16T21:33:08.404Z,34.63
2023-04-16T21:35:34.713Z,31.48
2023-04-16T21:38:01.064Z,29.10
2023-04-16T21:40:34.850Z,31.48
2023-04-16T21:43:01.137Z,30.17
2023-04-16T21:45:30.672Z,28.73
2023-04-16T21:47:57.039Z,27.48
2023-04-16T21:50:23.455Z,31.50
2023-04-16T21:52:52.642Z,26.50
2023-04-16T21:55:19.229Z,24.55
2023-04-16T21:57:45.556Z,29.95
2023-04-16T22:00:12.310Z,24.25
2023-04-16T22:02:41.776Z,24.67
2023-04-16T22:05:12.402Z,25.85
2023-04-16T22:07:47.291Z,30.95
2023-04-16T22:10:15.054Z,27.27
2023-04-16T22:12:42.650Z,29.83
2023-04-16T22:15:09.236Z,25.40
2023-04-16T22:17:35.648Z,26.10
2023-04-16T22:20:02.587Z,29.25
2023-04-16T22:22:28.887Z,30.17
2023-04-16T22:24:57.635Z,28.73
2023-04-16T22:27:26.136Z,29.80
2023-04-16T22:29:52.445Z,28.02
2023-04-16T22:32:18.958Z,27.73
2023-04-16T22:34:45.362Z,29.50
2023-04-16T22:37:11.666Z,28.80
2023-04-16T22:39:37.951Z,28.50
2023-04-16T22:42:04.329Z,30.45
2023-04-16T22:44:30.687Z,28.33
2023-04-16T22:46:57.079Z,31.20
2023-04-16T22:49:28.231Z,28.40
2023-04-16T22:51:56.399Z,27.83
2023-04-16T22:54:27.916Z,27.67
2023-04-16T22:56:54.195Z,31.33
2023-04-16T22:59:20.473Z,30.15
2023-04-16T23:01:46.929Z,30.38
2023-04-16T23:04:16.323Z,35.40
2023-04-16T23:06:42.931Z,29.30
2023-04-16T23:09:12.955Z,32.30
2023-04-16T23:11:39.503Z,28.77
2023-04-16T23:14:07.274Z,37.90
2023-04-16T23:16:33.876Z,31.10
2023-04-16T23:19:02.716Z,34.17
2023-04-16T23:21:35.845Z,29.75
2023-04-16T23:24:02.204Z,31.90
2023-04-16T23:26:34.272Z,31.90
2023-04-16T23:29:00.610Z,28.55
2023-04-16T23:31:26.921Z,33.75
2023-04-16T23:33:53.234Z,34.70
2023-04-16T23:36:21.882Z,29.58
2023-04-16T23:38:48.176Z,26.08
2023-04-16T23:41:14.893Z,30.52
2023-04-16T23:43:43.736Z,27.20
2023-04-16T23:46:10.115Z,33.38
2023-04-16T23:48:36.460Z,31.20
2023-04-16T23:51:02.910Z,32.05
2023-04-16T23:53:29.213Z,30.27
2023-04-16T23:55:55.597Z,31.10
2023-04-16T23:58:21.918Z,37.65
